createdAt,value
2022-10-05T00:00:46.072Z,3.50
2022-10-05T00:02:52.659Z,3.07
2022-10-05T00:04:57.431Z,3.23
2022-10-05T00:07:20.202Z,2.73
2022-10-05T00:09:22.692Z,3.20
2022-10-05T00:11:24.795Z,2.80
2022-10-05T00:13:29.917Z,3.10
2022-10-05T00:15:32.305Z,3.30
2022-10-05T00:17:35.386Z,3.03
2022-10-05T00:19:39.393Z,2.50
2022-10-05T00:21:41.418Z,3.10
2022-10-05T00:23:43.520Z,3.20
2022-10-05T00:25:46.263Z,2.57
2022-10-05T00:27:56.912Z,2.80
2022-10-05T00:30:02.677Z,3.20
2022-10-05T00:32:04.918Z,2.27
2022-10-05T00:34:07.229Z,2.03
2022-10-05T00:36:09.501Z,3.00
2022-10-05T00:38:11.538Z,2.50
2022-10-05T00:40:31.786Z,2.77
2022-10-05T00:42:43.110Z,3.13
2022-10-05T00:44:55.174Z,2.57
2022-10-05T00:47:04.044Z,2.47
2022-10-05T00:49:14.523Z,2.60
2022-10-05T00:51:36.643Z,2.27
2022-10-05T00:54:03.498Z,2.97
2022-10-05T00:56:25.891Z,2.83
2022-10-05T00:58:55.534Z,3.17
2022-10-05T01:01:15.493Z,2.93
2022-10-05T01:03:38.325Z,2.70
2022-10-05T01:05:52.173Z,2.70
2022-10-05T01:08:21.694Z,2.87
2022-10-05T01:10:34.437Z,3.10
2022-10-05T01:12:59.196Z,2.60
2022-10-05T01:15:04.692Z,3.00
2022-10-05T01:17:38.076Z,2.87
2022-10-05T01:20:09.987Z,2.70
2022-10-05T01:22:27.480Z,2.40
2022-10-05T01:24:44.734Z,2.40
2022-10-05T01:26:56.094Z,2.40
2022-10-05T01:29:16.624Z,3.03
2022-10-05T01:31:24.785Z,2.10
2022-10-05T01:33:36.168Z,2.70
2022-10-05T01:36:03.564Z,2.60
2022-10-05T01:38:37.102Z,2.47
2022-10-05T01:41:13.672Z,2.20
2022-10-05T01:43:36.479Z,3.20
2022-10-05T01:45:53.888Z,2.73
2022-10-05T01:48:10.076Z,2.37
2022-10-05T01:51:27.552Z,3.00
2022-10-05T01:53:48.091Z,2.70
2022-10-05T01:56:01.774Z,3.03
2022-10-05T01:58:35.189Z,2.87
2022-10-05T02:01:12.593Z,2.60
2022-10-05T02:03:24.761Z,3.10
2022-10-05T02:05:36.239Z,2.80
2022-10-05T02:07:43.006Z,3.13
2022-10-05T02:09:54.586Z,2.90
2022-10-05T02:12:03.781Z,2.70
2022-10-05T02:14:12.767Z,2.67
2022-10-05T02:16:22.306Z,2.60
2022-10-05T02:18:33.940Z,2.10
2022-10-05T02:20:41.531Z,1.83
2022-10-05T02:22:56.355Z,2.17
2022-10-05T02:25:03.696Z,1.93
2022-10-05T02:27:09.030Z,2.03
2022-10-05T02:29:16.769Z,2.10
2022-10-05T02:31:30.157Z,2.00
2022-10-05T02:34:16.770Z,1.63
2022-10-05T02:36:32.301Z,1.87
2022-10-05T02:38:51.929Z,2.00
2022-10-05T02:41:14.966Z,2.07
2022-10-05T02:43:23.649Z,1.73
2022-10-05T02:45:37.954Z,2.20
2022-10-05T02:48:00.640Z,1.67
2022-10-05T02:50:15.776Z,1.90
2022-10-05T02:52:45.213Z,1.83
2022-10-05T02:55:18.235Z,1.93
2022-10-05T02:57:38.801Z,1.87
2022-10-05T02:59:48.869Z,1.97
2022-10-05T03:01:54.758Z,2.00
2022-10-05T03:04:15.229Z,2.03
2022-10-05T03:06:23.709Z,1.90
2022-10-05T03:08:47.510Z,2.20
2022-10-05T03:11:26.825Z,1.95
2022-10-05T03:13:48.422Z,1.93
2022-10-05T03:15:55.079Z,2.43
2022-10-05T03:18:08.101Z,1.67
2022-10-05T03:20:22.104Z,2.30
2022-10-05T03:22:34.042Z,2.43
2022-10-05T03:24:41.889Z,2.55
2022-10-05T03:27:04.450Z,2.42
2022-10-05T03:29:25.037Z,2.90
2022-10-05T03:31:42.164Z,2.70
2022-10-05T03:33:56.245Z,2.70
2022-10-05T03:36:05.406Z,2.77
2022-10-05T03:38:10.346Z,3.17
2022-10-05T03:40:28.660Z,3.07
2022-10-05T03:42:57.165Z,3.00
2022-10-05T03:45:26.817Z,3.80
2022-10-05T03:47:52.381Z,2.83
2022-10-05T03:50:00.431Z,2.97
2022-10-05T03:52:10.676Z,3.30
2022-10-05T03:54:23.719Z,2.63
2022-10-05T03:56:41.022Z,3.00
2022-10-05T03:58:53.121Z,2.97
2022-10-05T04:01:00.856Z,4.17
2022-10-05T04:03:35.543Z,5.20
2022-10-05T04:05:52.220Z,6.77
2022-10-05T04:07:59.461Z,4.67
2022-10-05T04:10:09.357Z,3.93
2022-10-05T04:12:38.980Z,2.97
2022-10-05T04:14:55.434Z,3.10
2022-10-05T04:17:05.085Z,3.47
2022-10-05T04:19:16.925Z,2.80
2022-10-05T04:21:28.696Z,2.70
2022-10-05T04:23:43.961Z,2.43
2022-10-05T04:26:02.329Z,3.23
2022-10-05T04:28:32.375Z,3.80
2022-10-05T04:30:42.193Z,3.50
2022-10-05T04:32:50.204Z,4.07
2022-10-05T04:34:54.571Z,3.60
2022-10-05T04:37:03.119Z,3.90
2022-10-05T04:39:21.366Z,3.90
2022-10-05T04:41:24.515Z,3.77
2022-10-05T04:44:05.679Z,4.20
2022-10-05T04:46:19.274Z,4.97
2022-10-05T04:48:32.953Z,3.53
2022-10-05T04:50:55.461Z,4.20
2022-10-05T04:53:28.200Z,3.50
2022-10-05T04:55:45.533Z,4.50
2022-10-05T04:58:13.480Z,5.27
2022-10-05T05:00:23.080Z,7.50
2022-10-05T05:02:41.248Z,6.90
2022-10-05T05:05:06.100Z,6.43
2022-10-05T05:07:49.366Z,7.13
2022-10-05T05:10:05.486Z,8.07
2022-10-05T05:12:38.703Z,7.10
2022-10-05T05:14:43.681Z,6.70
2022-10-05T05:17:08.538Z,6.93
2022-10-05T05:19:17.301Z,6.80
2022-10-05T05:21:41.138Z,7.23
2022-10-05T05:24:05.677Z,6.87
2022-10-05T05:26:22.651Z,6.30
2022-10-05T05:28:47.221Z,4.40
2022-10-05T05:30:57.637Z,4.73
2022-10-05T05:33:16.739Z,5.40
2022-10-05T05:35:40.059Z,5.20
2022-10-05T05:38:11.918Z,5.33
2022-10-05T05:40:24.065Z,7.33
2022-10-05T05:42:49.761Z,6.70
2022-10-05T05:44:58.738Z,7.27
2022-10-05T05:47:11.089Z,8.37
2022-10-05T05:49:36.122Z,10.27
2022-10-05T05:51:46.005Z,10.67
2022-10-05T05:53:55.997Z,8.50
2022-10-05T06:00:15.518Z,6.03
2022-10-05T06:03:05.311Z,5.70
2022-10-05T06:05:32.169Z,4.97
2022-10-05T06:07:38.100Z,4.97
2022-10-05T06:10:07.921Z,4.85
2022-10-05T06:12:27.239Z,4.43
2022-10-05T06:14:35.342Z,4.60
2022-10-05T06:16:47.421Z,3.83
2022-10-05T06:18:59.279Z,3.80
2022-10-05T06:21:24.575Z,4.72
2022-10-05T06:23:35.925Z,4.22
2022-10-05T06:26:10.915Z,4.07
2022-10-05T06:28:19.858Z,4.47
2022-10-05T06:30:30.955Z,5.20
2022-10-05T06:32:33.603Z,5.30
2022-10-05T06:35:11.860Z,5.40
2022-10-05T06:37:34.151Z,5.93
2022-10-05T06:40:00.795Z,5.00
2022-10-05T06:42:13.631Z,4.32
2022-10-05T06:44:53.608Z,5.68
2022-10-05T06:47:29.928Z,4.55
2022-10-05T06:49:58.033Z,3.88
2022-10-05T06:52:25.645Z,4.20
2022-10-05T06:55:00.790Z,4.70
2022-10-05T06:57:08.738Z,4.63
2022-10-05T06:59:40.383Z,4.40
2022-10-05T07:01:51.740Z,4.97
2022-10-05T07:03:57.566Z,4.38
2022-10-05T07:06:07.372Z,4.70
2022-10-05T07:08:19.743Z,5.10
2022-10-05T07:10:30.670Z,4.30
2022-10-05T07:12:47.199Z,4.30
2022-10-05T07:14:52.275Z,3.97
2022-10-05T07:17:20.519Z,3.45
2022-10-05T07:19:35.222Z,3.25
2022-10-05T07:21:45.935Z,3.10
2022-10-05T07:24:13.224Z,2.80
2022-10-05T07:26:27.584Z,2.35
2022-10-05T07:28:48.098Z,2.70
2022-10-05T07:31:00.616Z,3.00
2022-10-05T07:33:18.157Z,2.67
2022-10-05T07:35:54.450Z,2.63
2022-10-05T07:38:02.052Z,2.65
2022-10-05T07:40:11.230Z,2.50
2022-10-05T07:42:52.223Z,2.30
2022-10-05T07:45:18.301Z,2.30
2022-10-05T07:47:32.054Z,2.63
2022-10-05T07:49:42.016Z,2.33
2022-10-05T07:51:58.620Z,2.40
2022-10-05T07:54:25.863Z,2.95
2022-10-05T07:56:50.625Z,3.22
2022-10-05T07:59:07.912Z,2.65
2022-10-05T08:01:25.040Z,2.25
2022-10-05T08:03:52.499Z,2.50
2022-10-05T08:05:55.298Z,2.70
2022-10-05T08:08:24.935Z,2.85
2022-10-05T08:10:38.499Z,3.03
2022-10-05T08:13:04.523Z,2.58
2022-10-05T08:15:20.892Z,2.72
2022-10-05T08:18:00.638Z,2.40
2022-10-05T08:20:06.496Z,2.83
2022-10-05T08:22:19.798Z,2.58
2022-10-05T08:24:38.676Z,3.00
2022-10-05T08:27:06.555Z,3.17
2022-10-05T08:29:30.063Z,3.30
2022-10-05T08:31:33.853Z,2.80
2022-10-05T08:34:00.600Z,2.20
2022-10-05T08:36:14.621Z,2.17
2022-10-05T08:38:20.233Z,2.30
2022-10-05T08:41:01.226Z,1.92
2022-10-05T08:43:35.045Z,1.85
2022-10-05T08:46:08.442Z,2.08
2022-10-05T08:48:36.416Z,1.52
2022-10-05T08:50:38.262Z,2.15
2022-10-05T08:52:43.367Z,1.90
2022-10-05T08:55:10.382Z,1.67
2022-10-05T08:57:15.477Z,1.88
2022-10-05T08:59:44.674Z,1.63
2022-10-05T09:02:28.349Z,1.80
2022-10-05T09:04:48.302Z,1.98
2022-10-05T09:07:01.450Z,1.77
2022-10-05T09:09:18.689Z,1.88
2022-10-05T09:11:26.959Z,1.67
2022-10-05T09:13:40.819Z,2.25
2022-10-05T09:16:02.996Z,1.80
2022-10-05T09:18:42.469Z,1.92
2022-10-05T09:20:55.348Z,1.50
2022-10-05T09:23:00.231Z,1.48
2022-10-05T09:25:21.277Z,1.70
2022-10-05T09:27:36.534Z,1.40
2022-10-05T09:30:20.297Z,1.20
2022-10-05T09:32:59.318Z,1.10
2022-10-05T09:35:23.065Z,1.48
2022-10-05T09:37:50.257Z,1.20
2022-10-05T09:40:35.139Z,1.20
2022-10-05T09:43:17.745Z,2.97
2022-10-05T09:45:38.378Z,1.50
2022-10-05T09:47:50.682Z,0.90
2022-10-05T09:50:18.849Z,0.90
2022-10-05T09:53:11.025Z,2.67
2022-10-05T09:55:46.935Z,13.43
2022-10-05T09:57:55.573Z,10.05
2022-10-05T09:59:57.581Z,6.75
2022-10-05T10:02:14.156Z,6.22
2022-10-05T10:04:29.759Z,3.63
2022-10-05T10:07:17.100Z,1.27
2022-10-05T10:09:28.393Z,1.30
2022-10-05T10:11:42.025Z,1.10
2022-10-05T10:13:47.076Z,1.10
2022-10-05T10:15:57.800Z,1.67
2022-10-05T10:18:38.162Z,2.15
2022-10-05T10:20:48.984Z,6.28
2022-10-05T10:22:59.933Z,5.47
2022-10-05T10:25:43.538Z,8.70
2022-10-05T10:27:51.702Z,9.77
2022-10-05T10:30:12.315Z,6.80
2022-10-05T10:32:17.430Z,7.32
2022-10-05T10:35:10.146Z,9.35
2022-10-05T10:37:21.103Z,2.78
2022-10-05T10:39:45.299Z,3.42
2022-10-05T10:42:02.682Z,7.13
2022-10-05T10:44:52.651Z,6.78
2022-10-05T10:47:22.392Z,6.13
2022-10-05T10:49:59.500Z,4.82
2022-10-05T10:52:01.516Z,9.27
2022-10-05T10:54:22.312Z,16.08
2022-10-05T10:56:54.703Z,16.42
2022-10-05T10:59:05.478Z,15.27
2022-10-05T11:01:29.296Z,18.55
2022-10-05T11:03:43.283Z,24.67
2022-10-05T11:06:01.562Z,26.65
2022-10-05T11:08:12.751Z,12.57
2022-10-05T11:10:31.701Z,4.30
2022-10-05T11:12:51.641Z,7.22
2022-10-05T11:15:16.905Z,6.82
2022-10-05T11:17:18.923Z,9.77
2022-10-05T11:20:20.853Z,16.02
2022-10-05T11:22:32.741Z,10.85
2022-10-05T11:25:07.197Z,55.65
2022-10-05T11:27:15.083Z,55.20
2022-10-05T11:29:23.068Z,41.25
2022-10-05T11:32:04.146Z,29.70
2022-10-05T11:34:41.474Z,22.67
2022-10-05T11:37:10.944Z,23.80
2022-10-05T11:39:44.765Z,40.20
2022-10-05T11:42:11.696Z,36.67
2022-10-05T11:44:31.990Z,26.95
2022-10-05T11:46:49.671Z,14.50
2022-10-05T11:49:34.452Z,20.13
2022-10-05T11:51:59.238Z,25.13
2022-10-05T11:54:10.334Z,24.73
2022-10-05T11:56:34.107Z,29.20
2022-10-05T11:58:59.752Z,19.27
2022-10-05T12:01:20.293Z,27.13
2022-10-05T12:03:42.675Z,23.65
2022-10-05T12:06:13.970Z,16.65
2022-10-05T12:08:24.584Z,10.65
2022-10-05T12:10:52.566Z,6.07
2022-10-05T12:12:57.774Z,10.73
2022-10-05T12:15:35.273Z,11.45
2022-10-05T12:18:06.931Z,8.15
2022-10-05T12:20:35.843Z,6.13
2022-10-05T12:22:49.785Z,4.10
2022-10-05T12:25:11.886Z,3.78
2022-10-05T12:27:27.140Z,19.48
2022-10-05T12:29:51.932Z,23.23
2022-10-05T12:32:33.793Z,16.38
2022-10-05T12:35:01.441Z,11.57
2022-10-05T12:37:29.094Z,17.52
2022-10-05T12:39:49.975Z,19.20
2022-10-05T12:42:05.866Z,15.38
2022-10-05T12:44:21.562Z,12.90
2022-10-05T12:46:44.349Z,18.95
2022-10-05T12:49:05.004Z,12.57
2022-10-05T12:51:20.216Z,8.88
2022-10-05T12:53:28.829Z,8.93
2022-10-05T12:55:59.912Z,14.95
2022-10-05T12:58:23.118Z,6.00
2022-10-05T13:00:32.671Z,8.60
2022-10-05T13:02:44.099Z,9.68
2022-10-05T13:05:12.035Z,8.40
2022-10-05T13:07:48.591Z,10.07
2022-10-05T13:10:09.229Z,14.80
2022-10-05T13:12:26.726Z,13.02
2022-10-05T13:14:31.783Z,13.70
2022-10-05T13:16:55.295Z,14.93
2022-10-05T13:19:16.179Z,12.43
2022-10-05T13:21:30.336Z,12.85
2022-10-05T13:23:57.549Z,13.80
2022-10-05T13:26:08.940Z,9.00
2022-10-05T13:28:18.059Z,28.98
2022-10-05T13:30:22.108Z,29.88
2022-10-05T13:32:41.238Z,20.80
2022-10-05T13:34:50.691Z,22.60
2022-10-05T13:37:17.548Z,15.02
2022-10-05T13:39:47.177Z,6.80
2022-10-05T13:42:15.522Z,6.90
2022-10-05T13:44:34.138Z,13.57
2022-10-05T13:46:54.090Z,10.88
2022-10-05T13:49:18.278Z,12.80
2022-10-05T13:51:38.752Z,14.55
2022-10-05T13:54:14.823Z,13.75
2022-10-05T13:56:34.713Z,13.27
2022-10-05T13:58:45.234Z,9.90
2022-10-05T14:00:53.107Z,5.70
2022-10-05T14:02:57.729Z,5.20
2022-10-05T14:05:02.848Z,4.80
2022-10-05T14:07:34.167Z,2.60
2022-10-05T14:09:36.220Z,2.65
2022-10-05T14:11:51.924Z,4.43
2022-10-05T14:14:01.603Z,4.05
2022-10-05T14:16:22.400Z,5.55
2022-10-05T14:18:27.598Z,5.65
2022-10-05T14:20:34.325Z,7.78
2022-10-05T14:22:42.364Z,7.65
2022-10-05T14:24:52.538Z,9.93
2022-10-05T14:26:56.656Z,12.43
2022-10-05T14:29:17.877Z,15.15
2022-10-05T14:31:32.129Z,16.98
2022-10-05T14:33:36.074Z,18.30
2022-10-05T14:35:44.058Z,18.80
2022-10-05T14:37:58.386Z,21.50
2022-10-05T14:40:22.439Z,22.50
2022-10-05T14:42:29.145Z,26.42
2022-10-05T14:46:36.760Z,25.95
2022-10-05T14:48:43.388Z,27.17
2022-10-05T14:50:55.403Z,26.98
2022-10-05T14:53:10.502Z,27.95
2022-10-05T14:55:57.110Z,27.48
2022-10-05T14:58:02.406Z,27.13
2022-10-05T15:00:13.442Z,26.20
2022-10-05T15:02:48.206Z,20.13
2022-10-05T15:05:25.515Z,18.23
2022-10-05T15:07:39.083Z,13.65
2022-10-05T15:10:16.051Z,12.43
2022-10-05T15:12:39.012Z,10.82
2022-10-05T15:14:45.050Z,10.85
2022-10-05T15:16:51.741Z,9.57
2022-10-05T15:19:17.171Z,9.18
2022-10-05T15:21:31.974Z,9.32
2022-10-05T15:23:34.043Z,7.75
2022-10-05T15:25:43.224Z,8.32
2022-10-05T15:28:11.532Z,7.80
2022-10-05T15:30:21.435Z,7.00
2022-10-05T15:32:51.863Z,6.72
2022-10-05T15:35:09.613Z,6.20
2022-10-05T15:37:37.131Z,6.40
2022-10-05T15:39:50.294Z,6.65
2022-10-05T15:42:02.086Z,5.07
2022-10-05T15:44:36.487Z,7.47
2022-10-05T15:46:44.306Z,7.15
2022-10-05T15:48:56.062Z,6.40
2022-10-05T15:51:15.385Z,6.65
2022-10-05T15:53:38.627Z,6.97
2022-10-05T15:55:53.411Z,7.07
2022-10-05T15:58:21.122Z,5.47
2022-10-05T16:00:25.563Z,4.93
2022-10-05T16:03:05.463Z,5.47
2022-10-05T16:05:56.400Z,5.53
2022-10-05T16:08:16.950Z,5.90
2022-10-05T16:10:21.894Z,4.55
2022-10-05T16:12:26.862Z,5.35
2022-10-05T16:14:42.602Z,5.35
2022-10-05T16:17:22.005Z,4.75
2022-10-05T16:19:39.470Z,5.63
2022-10-05T16:22:11.143Z,6.75
2022-10-05T16:24:47.596Z,9.27
2022-10-05T16:27:00.329Z,7.90
2022-10-05T16:29:17.835Z,8.32
2022-10-05T16:31:31.351Z,8.40
2022-10-05T16:34:00.778Z,9.73
2022-10-05T16:36:32.170Z,10.35
2022-10-05T16:38:38.615Z,10.30
2022-10-05T16:41:18.199Z,9.95
2022-10-05T16:43:46.530Z,11.57
2022-10-05T16:46:30.066Z,12.20
2022-10-05T16:49:12.353Z,12.18
2022-10-05T16:51:52.222Z,12.68
2022-10-05T16:54:00.145Z,12.63
2022-10-05T16:56:07.045Z,13.82
2022-10-05T16:58:25.620Z,14.57
2022-10-05T17:00:45.683Z,15.15
2022-10-05T17:03:05.860Z,23.20
2022-10-05T17:05:26.371Z,24.25
2022-10-05T17:07:43.722Z,26.63
2022-10-05T17:10:08.410Z,26.15
2022-10-05T17:12:53.269Z,25.88
2022-10-05T17:15:15.001Z,22.60
2022-10-05T17:18:01.481Z,19.50
2022-10-05T17:20:21.200Z,18.38
2022-10-05T17:22:39.867Z,21.30
2022-10-05T17:24:56.904Z,21.33
2022-10-05T17:27:15.983Z,19.60
2022-10-05T17:29:47.670Z,19.75
2022-10-05T17:32:11.391Z,20.08
2022-10-05T17:34:16.621Z,16.67
2022-10-05T17:36:18.997Z,15.35
2022-10-05T17:38:23.829Z,14.50
2022-10-05T17:40:28.819Z,14.40
2022-10-05T17:42:34.259Z,14.77
2022-10-05T17:44:36.038Z,13.73
2022-10-05T17:46:39.367Z,13.13
2022-10-05T17:48:44.155Z,13.23
2022-10-05T17:51:07.269Z,12.70
2022-10-05T17:53:52.954Z,16.15
2022-10-05T17:56:05.311Z,16.35
2022-10-05T17:59:00.063Z,19.30
2022-10-05T18:01:01.783Z,19.33
2022-10-05T18:03:37.961Z,23.48
2022-10-05T18:05:40.324Z,21.50
2022-10-05T18:07:48.862Z,18.92
2022-10-05T18:10:00.391Z,19.20
2022-10-05T18:12:18.064Z,21.63
2022-10-05T18:14:55.000Z,22.85
2022-10-05T18:17:04.038Z,22.77
2022-10-05T18:19:16.716Z,25.05
2022-10-05T18:22:17.561Z,25.65
2022-10-05T18:24:32.495Z,22.98
2022-10-05T18:26:53.152Z,19.50
2022-10-05T18:29:36.735Z,18.38
2022-10-05T18:32:00.523Z,15.68
2022-10-05T18:34:14.050Z,13.90
2022-10-05T18:36:16.281Z,12.82
2022-10-05T18:38:49.226Z,12.68
2022-10-05T18:41:12.516Z,12.18
2022-10-05T18:43:33.083Z,11.95
2022-10-05T18:45:53.270Z,12.00
2022-10-05T18:48:31.261Z,11.43
2022-10-05T18:50:53.849Z,11.18
2022-10-05T18:53:28.526Z,12.82
2022-10-05T18:55:36.321Z,11.70
2022-10-05T18:58:00.374Z,12.15
2022-10-05T19:00:15.354Z,11.35
2022-10-05T19:02:30.301Z,13.68
2022-10-05T19:05:09.184Z,12.82
2022-10-05T19:07:26.927Z,13.48
2022-10-05T19:09:44.087Z,12.93
2022-10-05T19:12:12.241Z,12.70
2022-10-05T19:15:01.030Z,12.60
2022-10-05T19:17:30.967Z,11.10
2022-10-05T19:19:51.418Z,12.88
2022-10-05T19:22:13.317Z,14.15
2022-10-05T19:24:41.841Z,14.52
2022-10-05T19:27:14.433Z,14.45
2022-10-05T19:29:57.669Z,15.02
2022-10-05T19:32:15.942Z,15.48
2022-10-05T19:34:42.384Z,14.65
2022-10-05T19:37:14.909Z,15.43
2022-10-05T19:39:33.769Z,15.70
2022-10-05T19:41:46.725Z,16.08
2022-10-05T19:44:27.423Z,14.65
2022-10-05T19:46:55.489Z,14.13
2022-10-05T19:49:00.327Z,12.35
2022-10-05T19:51:11.484Z,12.25
2022-10-05T19:53:45.949Z,11.77
2022-10-05T19:55:48.179Z,11.60
2022-10-05T19:58:01.505Z,12.13
2022-10-05T20:00:04.653Z,9.77
2022-10-05T20:02:06.891Z,10.20
2022-10-05T20:04:10.757Z,8.60
2022-10-05T20:06:13.608Z,8.55
2022-10-05T20:08:17.823Z,9.98
2022-10-05T20:10:29.597Z,9.00
2022-10-05T20:13:03.992Z,8.35
2022-10-05T20:15:27.216Z,8.10
2022-10-05T20:17:51.930Z,7.53
2022-10-05T20:20:12.577Z,8.20
2022-10-05T20:22:34.643Z,8.57
2022-10-05T20:24:50.037Z,7.65
2022-10-05T20:27:09.556Z,7.30
2022-10-05T20:29:12.616Z,8.10
2022-10-05T20:31:14.823Z,7.95
2022-10-05T20:33:17.007Z,6.80
2022-10-05T20:35:23.902Z,7.18
2022-10-05T20:37:26.372Z,7.22
2022-10-05T20:39:28.499Z,7.47
2022-10-05T20:41:30.722Z,7.22
2022-10-05T20:43:32.741Z,7.32
2022-10-05T20:45:43.435Z,7.10
2022-10-05T20:47:47.477Z,6.10
2022-10-05T20:49:49.821Z,6.07
2022-10-05T20:51:55.820Z,6.25
2022-10-05T20:53:58.774Z,6.40
2022-10-05T20:56:02.695Z,6.00
2022-10-05T20:58:04.851Z,6.53
2022-10-05T21:00:08.154Z,5.65
2022-10-05T21:02:10.624Z,5.60
2022-10-05T21:04:12.900Z,6.03
2022-10-05T21:06:15.056Z,5.93
2022-10-05T21:08:17.972Z,6.72
2022-10-05T21:10:20.070Z,7.35
2022-10-05T21:12:22.693Z,6.78
2022-10-05T21:14:33.069Z,6.80
2022-10-05T21:16:38.245Z,6.45
2022-10-05T21:18:40.985Z,6.40
2022-10-05T21:20:43.118Z,7.93
2022-10-05T21:22:45.173Z,8.63
2022-10-05T21:24:47.429Z,7.00
2022-10-05T21:26:52.462Z,6.32
2022-10-05T21:28:54.757Z,5.22
2022-10-05T21:30:56.936Z,5.18
2022-10-05T21:32:59.009Z,4.38
2022-10-05T21:35:02.267Z,4.40
2022-10-05T21:37:05.001Z,5.18
2022-10-05T21:39:07.267Z,4.60
2022-10-05T21:41:09.358Z,5.38
2022-10-05T21:43:13.502Z,4.93
2022-10-05T21:45:15.626Z,4.72
2022-10-05T21:47:17.848Z,5.15
2022-10-05T21:49:20.229Z,5.22
2022-10-05T21:51:25.397Z,5.88
2022-10-05T21:53:32.278Z,5.57
2022-10-05T21:55:36.110Z,4.57
2022-10-05T21:57:38.950Z,4.00
2022-10-05T21:59:41.417Z,4.20
2022-10-05T22:01:43.670Z,5.00
2022-10-05T22:03:45.983Z,5.60
2022-10-05T22:06:49.029Z,5.15
2022-10-05T22:08:51.503Z,4.63
2022-10-05T22:10:56.833Z,4.80
2022-10-05T22:13:04.935Z,5.05
2022-10-05T22:15:07.627Z,5.25
2022-10-05T22:17:22.504Z,5.10
2022-10-05T22:19:25.307Z,5.15
2022-10-05T22:21:27.327Z,5.47
2022-10-05T22:23:29.489Z,6.47
2022-10-05T22:25:33.971Z,5.38
2022-10-05T22:27:36.605Z,5.38
2022-10-05T22:29:39.139Z,5.05
2022-10-05T22:31:41.492Z,4.10
2022-10-05T22:33:44.726Z,4.80
2022-10-05T22:35:49.648Z,4.18
2022-10-05T22:37:51.694Z,4.47
2022-10-05T22:39:55.369Z,4.13
2022-10-05T22:41:58.052Z,3.72
2022-10-05T22:44:03.197Z,3.80
2022-10-05T22:46:13.041Z,4.13
2022-10-05T22:48:16.279Z,4.25
2022-10-05T22:50:18.401Z,3.90
2022-10-05T22:52:21.437Z,3.40
2022-10-05T22:54:27.451Z,3.95
2022-10-05T22:56:31.518Z,3.63
2022-10-05T22:58:33.904Z,3.30
2022-10-05T23:00:59.179Z,2.95
2022-10-05T23:02:59.802Z,3.10
2022-10-05T23:05:01.934Z,3.22
2022-10-05T23:07:04.576Z,3.30
2022-10-05T23:09:06.724Z,3.30
2022-10-05T23:11:12.932Z,3.40
2022-10-05T23:13:16.204Z,3.15
2022-10-05T23:15:18.555Z,3.03
2022-10-05T23:17:21.281Z,2.72
2022-10-05T23:19:24.061Z,3.15
2022-10-05T23:21:29.136Z,3.03
2022-10-05T23:23:31.203Z,3.25
2022-10-05T23:25:33.507Z,3.47
2022-10-05T23:27:39.967Z,2.90
2022-10-05T23:29:42.125Z,2.80
2022-10-05T23:31:44.144Z,3.03
2022-10-05T23:33:46.499Z,2.97
2022-10-05T23:35:48.488Z,3.05
2022-10-05T23:37:51.152Z,2.60
2022-10-05T23:39:56.007Z,2.90
2022-10-05T23:42:00.105Z,2.70
2022-10-05T23:44:02.057Z,2.75
2022-10-05T23:46:06.651Z,2.90
2022-10-05T23:48:08.703Z,2.70
2022-10-05T23:50:10.937Z,3.05
2022-10-05T23:52:13.402Z,3.15
2022-10-05T23:54:16.549Z,2.83
2022-10-05T23:56:19.774Z,2.92
2022-10-05T23:58:23.203Z,2.80
